sensor_id;sensor_type;location;lat;lon;timestamp;pressure;altitude;pressure_sealevel;temperature;humidity
29505;BME280;16452;54.174;12.092;2022-10-31T00:00:21;101695.63;;;14.28;100.00
29505;BME280;16452;54.174;12.092;2022-10-31T00:02:47;101697.09;;;14.17;100.00
29505;BME280;16452;54.174;12.092;2022-10-31T00:05:13;101697.53;;;14.09;100.00
29505;BME280;16452;54.174;12.092;2022-10-31T00:07:38;101701.44;;;14.18;100.00
29505;BME280;16452;54.174;12.092;2022-10-31T00:10:05;101700.94;;;14.27;100.00
29505;BME280;16452;54.174;12.092;2022-10-31T00:12:31;101701.72;;;14.29;100.00
29505;BME280;16452;54.174;12.092;2022-10-31T00:14:56;101693.31;;;14.39;100.00
29505;BME280;16452;54.174;12.092;2022-10-31T00:17:22;101706.88;;;13.97;100.00
29505;BME280;16452;54.174;12.092;2022-10-31T00:19:48;101716.03;;;13.72;100.00
29505;BME280;16452;54.174;12.092;2022-10-31T00:22:14;101718.03;;;13.67;100.00
29505;BME280;16452;54.174;12.092;2022-10-31T00:24:39;101716.16;;;13.69;100.00
29505;BME280;16452;54.174;12.092;2022-10-31T00:27:05;101722.50;;;13.82;100.00
29505;BME280;16452;54.174;12.092;2022-10-31T00:29:31;101712.09;;;13.97;100.00
29505;BME280;16452;54.174;12.092;2022-10-31T00:31:56;101704.63;;;13.90;100.00
29505;BME280;16452;54.174;12.092;2022-10-31T00:34:22;101708.63;;;13.97;100.00
29505;BME280;16452;54.174;12.092;2022-10-31T00:36:48;101702.00;;;14.07;100.00
29505;BME280;16452;54.174;12.092;2022-10-31T00:39:13;101702.28;;;14.18;100.00
29505;BME280;16452;54.174;12.092;2022-10-31T00:41:39;101701.13;;;14.07;100.00
29505;BME280;16452;54.174;12.092;2022-10-31T00:44:05;101701.81;;;14.10;100.00
29505;BME280;16452;54.174;12.092;2022-10-31T00:46:30;101709.22;;;14.19;100.00
29505;BME280;16452;54.174;12.092;2022-10-31T00:48:56;101713.47;;;14.05;100.00
29505;BME280;16452;54.174;12.092;2022-10-31T00:51:22;101708.91;;;14.25;100.00
29505;BME280;16452;54.174;12.092;2022-10-31T00:53:47;101716.47;;;14.14;100.00
29505;BME280;16452;54.174;12.092;2022-10-31T00:56:13;101715.94;;;14.08;100.00
29505;BME280;16452;54.174;12.092;2022-10-31T00:58:39;101720.66;;;14.01;100.00
29505;BME280;16452;54.174;12.092;2022-10-31T01:01:05;101718.63;;;14.06;100.00
29505;BME280;16452;54.174;12.092;2022-10-31T01:03:33;101723.63;;;14.11;100.00
29505;BME280;16452;54.174;12.092;2022-10-31T01:06:19;101731.69;;;13.90;100.00
29505;BME280;16452;54.174;12.092;2022-10-31T01:08:47;101735.69;;;14.15;100.00
29505;BME280;16452;54.174;12.092;2022-10-31T01:11:20;101734.66;;;13.83;100.00
29505;BME280;16452;54.174;12.092;2022-10-31T01:13:47;101740.06;;;13.80;100.00
29505;BME280;16452;54.174;12.092;2022-10-31T01:16:18;101740.75;;;13.83;100.00
29505;BME280;16452;54.174;12.092;2022-10-31T01:18:44;101729.66;;;13.95;100.00
29505;BME280;16452;54.174;12.092;2022-10-31T01:23:39;101720.47;;;14.04;100.00
29505;BME280;16452;54.174;12.092;2022-10-31T01:26:17;101721.63;;;13.98;100.00
29505;BME280;16452;54.174;12.092;2022-10-31T01:28:53;101735.44;;;14.02;100.00
29505;BME280;16452;54.174;12.092;2022-10-31T01:31:22;101736.44;;;13.82;100.00
29505;BME280;16452;54.174;12.092;2022-10-31T01:33:48;101733.13;;;13.96;100.00
29505;BME280;16452;54.174;12.092;2022-10-31T01:36:25;101729.28;;;14.03;100.00
29505;BME280;16452;54.174;12.092;2022-10-31T01:38:57;101734.91;;;13.95;100.00
29505;BME280;16452;54.174;12.092;2022-10-31T01:41:29;101734.59;;;13.84;100.00
29505;BME280;16452;54.174;12.092;2022-10-31T01:43:58;101741.31;;;13.73;100.00
29505;BME280;16452;54.174;12.092;2022-10-31T01:49:43;101744.84;;;13.89;100.00
29505;BME280;16452;54.174;12.092;2022-10-31T01:54:41;101756.41;;;13.68;100.00
29505;BME280;16452;54.174;12.092;2022-10-31T01:57:11;101762.53;;;13.49;100.00
29505;BME280;16452;54.174;12.092;2022-10-31T01:59:43;101765.16;;;13.67;100.00
29505;BME280;16452;54.174;12.092;2022-10-31T02:02:11;101771.56;;;13.61;100.00
29505;BME280;16452;54.174;12.092;2022-10-31T02:04:37;101769.66;;;13.46;100.00
29505;BME280;16452;54.174;12.092;2022-10-31T02:07:09;101777.09;;;13.55;100.00
29505;BME280;16452;54.174;12.092;2022-10-31T02:09:36;101779.16;;;13.48;100.00
29505;BME280;16452;54.174;12.092;2022-10-31T02:12:03;101768.78;;;13.64;100.00
29505;BME280;16452;54.174;12.092;2022-10-31T02:14:30;101764.44;;;13.63;100.00
29505;BME280;16452;54.174;12.092;2022-10-31T02:16:57;101765.53;;;13.59;100.00
29505;BME280;16452;54.174;12.092;2022-10-31T02:22:37;101756.84;;;13.76;100.00
29505;BME280;16452;54.174;12.092;2022-10-31T02:34:21;101779.28;;;13.45;100.00
29505;BME280;16452;54.174;12.092;2022-10-31T02:36:58;101782.84;;;13.44;100.00
29505;BME280;16452;54.174;12.092;2022-10-31T02:40:03;101785.69;;;13.57;100.00
29505;BME280;16452;54.174;12.092;2022-10-31T02:42:35;101779.84;;;13.52;100.00
29505;BME280;16452;54.174;12.092;2022-10-31T02:45:14;101787.06;;;13.47;100.00
29505;BME280;16452;54.174;12.092;2022-10-31T02:47:45;101778.28;;;13.48;100.00
29505;BME280;16452;54.174;12.092;2022-10-31T02:50:35;101783.06;;;13.57;100.00
29505;BME280;16452;54.174;12.092;2022-10-31T02:53:03;101776.59;;;13.47;100.00
29505;BME280;16452;54.174;12.092;2022-10-31T02:58:02;101778.59;;;13.42;100.00
29505;BME280;16452;54.174;12.092;2022-10-31T03:00:37;101782.84;;;13.44;100.00
29505;BME280;16452;54.174;12.092;2022-10-31T03:06:24;101792.75;;;13.38;100.00
29505;BME280;16452;54.174;12.092;2022-10-31T03:09:24;101783.88;;;13.40;100.00
29505;BME280;16452;54.174;12.092;2022-10-31T03:12:01;101786.78;;;13.53;100.00
29505;BME280;16452;54.174;12.092;2022-10-31T03:14:43;101779.97;;;13.68;100.00
29505;BME280;16452;54.174;12.092;2022-10-31T03:17:27;101790.31;;;13.52;100.00
29505;BME280;16452;54.174;12.092;2022-10-31T03:19:59;101785.34;;;13.46;100.00
29505;BME280;16452;54.174;12.092;2022-10-31T03:22:29;101791.53;;;13.45;100.00
29505;BME280;16452;54.174;12.092;2022-10-31T03:24:57;101791.78;;;13.57;100.00
29505;BME280;16452;54.174;12.092;2022-10-31T03:27:29;101788.41;;;13.55;100.00
29505;BME280;16452;54.174;12.092;2022-10-31T03:29:58;101787.84;;;13.49;100.00
29505;BME280;16452;54.174;12.092;2022-10-31T03:32:33;101788.84;;;13.46;100.00
29505;BME280;16452;54.174;12.092;2022-10-31T03:35:03;101790.06;;;13.39;100.00
29505;BME280;16452;54.174;12.092;2022-10-31T03:37:33;101795.75;;;13.66;100.00
29505;BME280;16452;54.174;12.092;2022-10-31T03:40:02;101791.06;;;13.73;100.00
29505;BME280;16452;54.174;12.092;2022-10-31T03:42:34;101786.88;;;13.69;100.00
29505;BME280;16452;54.174;12.092;2022-10-31T03:45:17;101790.78;;;13.60;100.00
29505;BME280;16452;54.174;12.092;2022-10-31T03:47:46;101799.53;;;13.42;100.00
29505;BME280;16452;54.174;12.092;2022-10-31T03:50:14;101810.78;;;13.44;100.00
29505;BME280;16452;54.174;12.092;2022-10-31T03:52:53;101813.97;;;13.32;100.00
29505;BME280;16452;54.174;12.092;2022-10-31T03:55:33;101813.34;;;13.27;100.00
29505;BME280;16452;54.174;12.092;2022-10-31T03:58:09;101805.56;;;13.25;100.00
29505;BME280;16452;54.174;12.092;2022-10-31T04:00:40;101805.56;;;13.25;100.00
29505;BME280;16452;54.174;12.092;2022-10-31T04:03:17;101810.84;;;13.24;100.00
29505;BME280;16452;54.174;12.092;2022-10-31T04:05:47;101805.03;;;13.17;100.00
29505;BME280;16452;54.174;12.092;2022-10-31T04:08:18;101812.56;;;13.25;100.00
29505;BME280;16452;54.174;12.092;2022-10-31T04:10:49;101809.31;;;13.20;100.00
29505;BME280;16452;54.174;12.092;2022-10-31T04:13:23;101810.72;;;13.27;100.00
29505;BME280;16452;54.174;12.092;2022-10-31T04:15:52;101810.50;;;13.12;100.00
29505;BME280;16452;54.174;12.092;2022-10-31T04:18:19;101812.09;;;12.96;100.00
29505;BME280;16452;54.174;12.092;2022-10-31T04:20:47;101810.91;;;13.03;100.00
29505;BME280;16452;54.174;12.092;2022-10-31T04:23:24;101820.44;;;13.04;100.00
29505;BME280;16452;54.174;12.092;2022-10-31T04:25:53;101825.97;;;12.98;100.00
29505;BME280;16452;54.174;12.092;2022-10-31T04:28:19;101821.75;;;12.94;100.00
29505;BME280;16452;54.174;12.092;2022-10-31T04:30:45;101822.63;;;12.95;100.00
29505;BME280;16452;54.174;12.092;2022-10-31T04:33:11;101813.00;;;12.95;100.00
29505;BME280;16452;54.174;12.092;2022-10-31T04:35:36;101819.34;;;12.90;100.00
29505;BME280;16452;54.174;12.092;2022-10-31T04:38:02;101823.25;;;12.81;100.00
29505;BME280;16452;54.174;12.092;2022-10-31T04:40:28;101832.19;;;12.75;100.00
29505;BME280;16452;54.174;12.092;2022-10-31T04:42:54;101831.63;;;12.69;100.00
29505;BME280;16452;54.174;12.092;2022-10-31T04:45:20;101830.63;;;12.71;100.00
29505;BME280;16452;54.174;12.092;2022-10-31T04:47:46;101827.31;;;12.68;100.00
29505;BME280;16452;54.174;12.092;2022-10-31T04:50:12;101828.75;;;12.75;100.00
29505;BME280;16452;54.174;12.092;2022-10-31T04:52:45;101828.97;;;12.89;100.00
29505;BME280;16452;54.174;12.092;2022-10-31T04:55:12;101822.75;;;12.92;100.00
29505;BME280;16452;54.174;12.092;2022-10-31T04:57:43;101820.00;;;12.95;100.00
29505;BME280;16452;54.174;12.092;2022-10-31T05:00:11;101836.13;;;12.86;100.00
29505;BME280;16452;54.174;12.092;2022-10-31T05:02:48;101837.13;;;13.02;100.00
29505;BME280;16452;54.174;12.092;2022-10-31T05:05:15;101836.53;;;12.95;100.00
29505;BME280;16452;54.174;12.092;2022-10-31T05:07:44;101840.72;;;12.99;100.00
29505;BME280;16452;54.174;12.092;2022-10-31T05:10:14;101846.88;;;12.98;100.00
29505;BME280;16452;54.174;12.092;2022-10-31T05:12:52;101847.16;;;12.92;100.00
29505;BME280;16452;54.174;12.092;2022-10-31T05:15:20;101842.31;;;12.83;100.00
29505;BME280;16452;54.174;12.092;2022-10-31T05:17:47;101845.19;;;12.77;100.00
29505;BME280;16452;54.174;12.092;2022-10-31T05:20:14;101854.06;;;12.93;100.00
29505;BME280;16452;54.174;12.092;2022-10-31T05:22:50;101851.97;;;13.22;100.00
29505;BME280;16452;54.174;12.092;2022-10-31T05:25:18;101852.16;;;13.36;100.00
29505;BME280;16452;54.174;12.092;2022-10-31T05:27:46;101851.94;;;13.40;100.00
29505;BME280;16452;54.174;12.092;2022-10-31T05:30:16;101860.59;;;13.42;100.00
29505;BME280;16452;54.174;12.092;2022-10-31T05:32:45;101848.13;;;13.47;100.00
29505;BME280;16452;54.174;12.092;2022-10-31T05:35:15;101856.59;;;13.52;100.00
29505;BME280;16452;54.174;12.092;2022-10-31T05:37:41;101849.03;;;13.65;100.00
29505;BME280;16452;54.174;12.092;2022-10-31T05:40:11;101849.81;;;13.67;100.00
29505;BME280;16452;54.174;12.092;2022-10-31T05:42:44;101855.63;;;13.55;100.00
29505;BME280;16452;54.174;12.092;2022-10-31T05:45:14;101859.56;;;13.64;100.00
29505;BME280;16452;54.174;12.092;2022-10-31T05:47:40;101862.53;;;13.75;100.00
29505;BME280;16452;54.174;12.092;2022-10-31T05:50:07;101855.16;;;13.83;100.00
29505;BME280;16452;54.174;12.092;2022-10-31T05:52:33;101859.25;;;13.88;100.00
29505;BME280;16452;54.174;12.092;2022-10-31T05:54:59;101862.09;;;13.84;100.00
29505;BME280;16452;54.174;12.092;2022-10-31T05:57:25;101862.72;;;13.89;100.00
29505;BME280;16452;54.174;12.092;2022-10-31T05:59:51;101861.31;;;13.82;100.00
29505;BME280;16452;54.174;12.092;2022-10-31T06:02:19;101859.31;;;13.87;100.00
29505;BME280;16452;54.174;12.092;2022-10-31T06:04:45;101857.41;;;13.90;100.00
29505;BME280;16452;54.174;12.092;2022-10-31T06:07:11;101854.88;;;13.89;100.00
29505;BME280;16452;54.174;12.092;2022-10-31T06:09:36;101861.22;;;14.02;100.00
29505;BME280;16452;54.174;12.092;2022-10-31T06:12:02;101865.66;;;14.00;100.00
29505;BME280;16452;54.174;12.092;2022-10-31T06:14:28;101865.72;;;13.98;100.00
29505;BME280;16452;54.174;12.092;2022-10-31T06:16:55;101869.63;;;14.09;100.00
29505;BME280;16452;54.174;12.092;2022-10-31T06:19:21;101873.72;;;14.14;100.00
29505;BME280;16452;54.174;12.092;2022-10-31T06:21:47;101868.88;;;14.24;100.00
29505;BME280;16452;54.174;12.092;2022-10-31T06:24:13;101876.34;;;14.31;100.00
29505;BME280;16452;54.174;12.092;2022-10-31T06:26:40;101877.44;;;14.45;100.00
29505;BME280;16452;54.174;12.092;2022-10-31T06:29:06;101877.38;;;14.46;100.00
29505;BME280;16452;54.174;12.092;2022-10-31T06:31:32;101882.19;;;14.55;100.00
29505;BME280;16452;54.174;12.092;2022-10-31T06:33:57;101871.28;;;14.63;100.00
29505;BME280;16452;54.174;12.092;2022-10-31T06:36:23;101888.16;;;14.57;100.00
29505;BME280;16452;54.174;12.092;2022-10-31T06:38:49;101892.66;;;14.55;100.00
29505;BME280;16452;54.174;12.092;2022-10-31T06:41:15;101890.47;;;14.63;100.00
29505;BME280;16452;54.174;12.092;2022-10-31T06:43:40;101888.78;;;14.62;100.00
29505;BME280;16452;54.174;12.092;2022-10-31T06:46:06;101897.28;;;14.67;100.00
29505;BME280;16452;54.174;12.092;2022-10-31T06:48:32;101895.09;;;14.75;100.00
29505;BME280;16452;54.174;12.092;2022-10-31T06:50:59;101899.13;;;14.83;100.00
29505;BME280;16452;54.174;12.092;2022-10-31T06:53:26;101899.91;;;14.85;100.00
29505;BME280;16452;54.174;12.092;2022-10-31T06:55:52;101914.56;;;14.54;100.00
29505;BME280;16452;54.174;12.092;2022-10-31T06:58:18;101913.94;;;14.66;100.00
29505;BME280;16452;54.174;12.092;2022-10-31T07:00:44;101916.47;;;14.68;100.00
29505;BME280;16452;54.174;12.092;2022-10-31T07:03:12;101923.66;;;14.64;100.00
29505;BME280;16452;54.174;12.092;2022-10-31T07:05:38;101939.69;;;14.75;100.00
29505;BME280;16452;54.174;12.092;2022-10-31T07:08:08;101931.22;;;14.88;100.00
29505;BME280;16452;54.174;12.092;2022-10-31T07:10:36;101934.06;;;14.83;100.00
29505;BME280;16452;54.174;12.092;2022-10-31T07:13:11;101941.31;;;14.95;100.00
29505;BME280;16452;54.174;12.092;2022-10-31T07:15:38;101940.16;;;15.01;100.00
29505;BME280;16452;54.174;12.092;2022-10-31T07:18:07;101941.09;;;15.00;100.00
29505;BME280;16452;54.174;12.092;2022-10-31T07:20:33;101943.13;;;15.10;100.00
29505;BME280;16452;54.174;12.092;2022-10-31T07:23:03;101951.63;;;15.15;100.00
29505;BME280;16452;54.174;12.092;2022-10-31T07:25:29;101949.00;;;15.15;100.00
29505;BME280;16452;54.174;12.092;2022-10-31T07:27:55;101959.34;;;15.18;100.00
29505;BME280;16452;54.174;12.092;2022-10-31T07:30:21;101961.44;;;15.12;100.00
29505;BME280;16452;54.174;12.092;2022-10-31T07:32:50;101970.59;;;15.20;100.00
29505;BME280;16452;54.174;12.092;2022-10-31T07:35:22;101974.84;;;15.23;100.00
29505;BME280;16452;54.174;12.092;2022-10-31T07:37:49;101975.00;;;15.37;100.00
29505;BME280;16452;54.174;12.092;2022-10-31T07:40:16;101978.56;;;15.36;100.00
29505;BME280;16452;54.174;12.092;2022-10-31T07:42:45;101980.34;;;15.51;100.00
29505;BME280;16452;54.174;12.092;2022-10-31T07:45:16;101989.72;;;15.40;100.00
29505;BME280;16452;54.174;12.092;2022-10-31T07:47:46;101997.00;;;15.52;100.00
29505;BME280;16452;54.174;12.092;2022-10-31T07:50:15;101985.84;;;15.47;100.00
29505;BME280;16452;54.174;12.092;2022-10-31T07:52:41;101995.16;;;15.37;100.00
29505;BME280;16452;54.174;12.092;2022-10-31T07:55:08;101999.38;;;15.56;100.00
29505;BME280;16452;54.174;12.092;2022-10-31T07:57:34;102009.03;;;15.39;100.00
29505;BME280;16452;54.174;12.092;2022-10-31T08:00:00;102008.56;;;15.48;100.00
29505;BME280;16452;54.174;12.092;2022-10-31T08:02:26;102011.09;;;15.49;100.00
29505;BME280;16452;54.174;12.092;2022-10-31T08:04:52;102006.34;;;15.40;100.00
29505;BME280;16452;54.174;12.092;2022-10-31T08:07:18;102012.44;;;15.58;100.00
29505;BME280;16452;54.174;12.092;2022-10-31T08:09:43;102007.34;;;15.55;100.00
29505;BME280;16452;54.174;12.092;2022-10-31T08:12:09;102012.38;;;15.59;100.00
29505;BME280;16452;54.174;12.092;2022-10-31T08:14:35;102017.50;;;15.61;100.00
29505;BME280;16452;54.174;12.092;2022-10-31T08:17:01;102024.72;;;15.57;100.00
29505;BME280;16452;54.174;12.092;2022-10-31T08:19:26;102038.88;;;15.55;100.00
29505;BME280;16452;54.174;12.092;2022-10-31T08:21:53;102035.50;;;15.51;100.00
29505;BME280;16452;54.174;12.092;2022-10-31T08:24:21;102044.03;;;15.56;100.00
29505;BME280;16452;54.174;12.092;2022-10-31T08:26:47;102042.78;;;15.64;100.00
29505;BME280;16452;54.174;12.092;2022-10-31T08:29:13;102046.00;;;15.69;100.00
29505;BME280;16452;54.174;12.092;2022-10-31T08:31:43;102047.47;;;15.74;100.00
29505;BME280;16452;54.174;12.092;2022-10-31T08:34:08;102041.13;;;15.78;100.00
29505;BME280;16452;54.174;12.092;2022-10-31T08:36:34;102041.13;;;15.78;100.00
29505;BME280;16452;54.174;12.092;2022-10-31T08:39:00;102048.00;;;15.81;100.00
29505;BME280;16452;54.174;12.092;2022-10-31T08:41:26;102055.56;;;15.87;100.00
29505;BME280;16452;54.174;12.092;2022-10-31T08:43:52;102041.34;;;15.74;100.00
29505;BME280;16452;54.174;12.092;2022-10-31T08:46:18;102056.97;;;15.77;100.00
29505;BME280;16452;54.174;12.092;2022-10-31T08:48:44;102052.66;;;15.76;100.00
29505;BME280;16452;54.174;12.092;2022-10-31T08:51:10;102047.84;;;15.84;100.00
29505;BME280;16452;54.174;12.092;2022-10-31T08:53:36;102046.28;;;15.80;100.00
29505;BME280;16452;54.174;12.092;2022-10-31T08:56:02;102049.91;;;15.94;100.00
29505;BME280;16452;54.174;12.092;2022-10-31T08:58:28;102054.03;;;15.98;100.00
29505;BME280;16452;54.174;12.092;2022-10-31T09:00:54;102049.63;;;15.99;100.00
29505;BME280;16452;54.174;12.092;2022-10-31T09:03:27;102054.56;;;15.89;100.00
29505;BME280;16452;54.174;12.092;2022-10-31T09:05:59;102064.09;;;15.90;100.00
29505;BME280;16452;54.174;12.092;2022-10-31T09:08:25;102057.25;;;15.88;100.00
29505;BME280;16452;54.174;12.092;2022-10-31T09:10:51;102053.84;;;15.86;100.00
29505;BME280;16452;54.174;12.092;2022-10-31T09:13:21;102061.06;;;15.82;100.00
29505;BME280;16452;54.174;12.092;2022-10-31T09:15:49;102060.88;;;15.85;100.00
29505;BME280;16452;54.174;12.092;2022-10-31T09:18:21;102061.34;;;15.93;100.00
29505;BME280;16452;54.174;12.092;2022-10-31T09:20:48;102053.38;;;15.95;100.00
29505;BME280;16452;54.174;12.092;2022-10-31T09:23:19;102049.13;;;15.92;100.00
29505;BME280;16452;54.174;12.092;2022-10-31T09:25:46;102048.19;;;15.93;100.00
29505;BME280;16452;54.174;12.092;2022-10-31T09:28:16;102048.25;;;15.92;100.00
29505;BME280;16452;54.174;12.092;2022-10-31T09:30:42;102050.75;;;15.95;100.00
29505;BME280;16452;54.174;12.092;2022-10-31T09:33:12;102054.97;;;15.97;100.00
29505;BME280;16452;54.174;12.092;2022-10-31T09:35:38;102048.53;;;15.87;100.00
29505;BME280;16452;54.174;12.092;2022-10-31T09:38:19;102054.63;;;15.88;100.00
29505;BME280;16452;54.174;12.092;2022-10-31T09:52:03;102067.69;;;15.89;100.00
29505;BME280;16452;54.174;12.092;2022-10-31T09:55:06;102061.84;;;16.00;100.00
29505;BME280;16452;54.174;12.092;2022-10-31T09:57:38;102072.78;;;15.92;100.00
29505;BME280;16452;54.174;12.092;2022-10-31T10:00:10;102069.03;;;15.81;100.00
29505;BME280;16452;54.174;12.092;2022-10-31T10:03:10;102059.81;;;15.89;100.00
29505;BME280;16452;54.174;12.092;2022-10-31T10:06:11;102065.13;;;15.88;100.00
29505;BME280;16452;54.174;12.092;2022-10-31T10:08:39;102065.38;;;15.83;100.00
29505;BME280;16452;54.174;12.092;2022-10-31T10:11:33;102067.38;;;15.95;100.00
29505;BME280;16452;54.174;12.092;2022-10-31T10:14:08;102068.63;;;15.88;100.00
29505;BME280;16452;54.174;12.092;2022-10-31T10:20:24;102061.94;;;15.98;100.00
29505;BME280;16452;54.174;12.092;2022-10-31T10:23:45;102070.16;;;15.92;100.00
29505;BME280;16452;54.174;12.092;2022-10-31T10:26:37;102083.84;;;15.82;100.00
29505;BME280;16452;54.174;12.092;2022-10-31T10:29:31;102086.88;;;15.74;100.00
29505;BME280;16452;54.174;12.092;2022-10-31T10:32:04;102087.16;;;15.85;100.00
29505;BME280;16452;54.174;12.092;2022-10-31T10:34:40;102082.69;;;15.87;100.00
29505;BME280;16452;54.174;12.092;2022-10-31T10:37:26;102071.66;;;15.81;100.00
29505;BME280;16452;54.174;12.092;2022-10-31T10:40:11;102084.22;;;15.58;100.00
29505;BME280;16452;54.174;12.092;2022-10-31T10:42:40;102087.53;;;15.62;100.00
29505;BME280;16452;54.174;12.092;2022-10-31T10:45:26;102094.75;;;15.74;100.00
29505;BME280;16452;54.174;12.092;2022-10-31T10:48:38;102083.94;;;15.80;100.00
29505;BME280;16452;54.174;12.092;2022-10-31T10:51:20;102075.13;;;15.81;100.00
29505;BME280;16452;54.174;12.092;2022-10-31T10:54:17;102081.50;;;15.93;100.00
29505;BME280;16452;54.174;12.092;2022-10-31T10:57:32;102080.41;;;15.97;100.00
29505;BME280;16452;54.174;12.092;2022-10-31T11:00:23;102072.75;;;15.77;100.00
29505;BME280;16452;54.174;12.092;2022-10-31T11:02:49;102075.97;;;15.82;100.00
29505;BME280;16452;54.174;12.092;2022-10-31T11:05:37;102079.72;;;15.78;100.00
29505;BME280;16452;54.174;12.092;2022-10-31T11:08:05;102072.88;;;15.74;100.00
29505;BME280;16452;54.174;12.092;2022-10-31T11:10:31;102081.91;;;15.85;100.00
29505;BME280;16452;54.174;12.092;2022-10-31T11:16:00;102069.38;;;15.90;100.00
29505;BME280;16452;54.174;12.092;2022-10-31T11:18:32;102069.03;;;15.81;100.00
29505;BME280;16452;54.174;12.092;2022-10-31T11:21:01;102056.41;;;15.87;100.00
29505;BME280;16452;54.174;12.092;2022-10-31T11:23:29;102051.66;;;15.94;100.00
29505;BME280;16452;54.174;12.092;2022-10-31T11:26:06;102065.81;;;15.91;100.00
29505;BME280;16452;54.174;12.092;2022-10-31T11:28:43;102053.84;;;15.86;100.00
29505;BME280;16452;54.174;12.092;2022-10-31T11:31:12;102062.44;;;15.89;100.00
29505;BME280;16452;54.174;12.092;2022-10-31T11:33:57;102064.88;;;15.92;100.00
29505;BME280;16452;54.174;12.092;2022-10-31T11:36:33;102049.72;;;15.97;100.00
29505;BME280;16452;54.174;12.092;2022-10-31T11:39:03;102053.28;;;15.96;100.00
29505;BME280;16452;54.174;12.092;2022-10-31T11:41:33;102057.75;;;15.44;100.00
29505;BME280;16452;54.174;12.092;2022-10-31T11:44:11;102060.53;;;15.76;100.00
29505;BME280;16452;54.174;12.092;2022-10-31T11:47:11;102058.50;;;15.81;100.00
29505;BME280;16452;54.174;12.092;2022-10-31T11:49:42;102065.91;;;15.57;100.00
29505;BME280;16452;54.174;12.092;2022-10-31T11:52:20;102063.84;;;15.79;100.00
29505;BME280;16452;54.174;12.092;2022-10-31T11:54:52;102073.13;;;15.69;100.00
29505;BME280;16452;54.174;12.092;2022-10-31T11:57:32;102065.56;;;15.46;100.00
29505;BME280;16452;54.174;12.092;2022-10-31T12:00:05;102068.78;;;15.52;100.00
29505;BME280;16452;54.174;12.092;2022-10-31T12:02:45;102064.81;;;15.61;100.00
29505;BME280;16452;54.174;12.092;2022-10-31T12:05:25;102065.00;;;15.74;100.00
29505;BME280;16452;54.174;12.092;2022-10-31T12:07:54;102052.09;;;15.53;100.00
29505;BME280;16452;54.174;12.092;2022-10-31T12:10:23;102044.88;;;15.40;100.00
29505;BME280;16452;54.174;12.092;2022-10-31T12:12:56;102055.13;;;15.44;100.00
29505;BME280;16452;54.174;12.092;2022-10-31T12:15:37;102059.66;;;15.42;100.00
29505;BME280;16452;54.174;12.092;2022-10-31T12:18:27;102059.13;;;15.53;100.00
29505;BME280;16452;54.174;12.092;2022-10-31T12:21:21;102052.38;;;15.30;100.00
29505;BME280;16452;54.174;12.092;2022-10-31T12:35:33;102056.16;;;15.42;100.00
29505;BME280;16452;54.174;12.092;2022-10-31T12:46:49;102036.09;;;15.74;100.00
29505;BME280;16452;54.174;12.092;2022-10-31T12:49:52;102029.59;;;15.48;100.00
29505;BME280;16452;54.174;12.092;2022-10-31T12:53:05;102028.75;;;15.30;100.00
29505;BME280;16452;54.174;12.092;2022-10-31T12:56:21;102041.16;;;15.44;100.00
29505;BME280;16452;54.174;12.092;2022-10-31T12:59:01;102042.25;;;15.57;100.00
29505;BME280;16452;54.174;12.092;2022-10-31T13:01:39;102033.38;;;15.42;100.00
29505;BME280;16452;54.174;12.092;2022-10-31T13:07:45;102043.72;;;15.28;100.00
29505;BME280;16452;54.174;12.092;2022-10-31T13:10:30;102035.72;;;15.14;100.00
29505;BME280;16452;54.174;12.092;2022-10-31T13:13:05;102049.59;;;15.16;100.00
29505;BME280;16452;54.174;12.092;2022-10-31T13:15:58;102055.78;;;15.15;100.00
29505;BME280;16452;54.174;12.092;2022-10-31T13:18:38;102062.03;;;15.30;100.00
29505;BME280;16452;54.174;12.092;2022-10-31T13:21:15;102054.22;;;15.28;100.00
29505;BME280;16452;54.174;12.092;2022-10-31T13:23:44;102038.03;;;15.37;100.00
29505;BME280;16452;54.174;12.092;2022-10-31T13:26:20;102025.94;;;15.50;100.00
29505;BME280;16452;54.174;12.092;2022-10-31T13:31:54;102015.66;;;15.46;100.00
29505;BME280;16452;54.174;12.092;2022-10-31T13:34:28;102024.41;;;15.46;100.00
29505;BME280;16452;54.174;12.092;2022-10-31T13:37:22;102027.41;;;15.39;100.00
29505;BME280;16452;54.174;12.092;2022-10-31T13:45:54;102022.25;;;15.54;100.00
29505;BME280;16452;54.174;12.092;2022-10-31T13:48:36;102016.59;;;15.62;100.00
29505;BME280;16452;54.174;12.092;2022-10-31T13:51:06;102005.94;;;15.48;100.00
29505;BME280;16452;54.174;12.092;2022-10-31T13:56:33;101991.25;;;15.44;100.00
29505;BME280;16452;54.174;12.092;2022-10-31T14:02:00;101985.31;;;15.40;100.00
29505;BME280;16452;54.174;12.092;2022-10-31T14:04:49;101982.94;;;15.36;100.00
29505;BME280;16452;54.174;12.092;2022-10-31T14:07:20;101994.84;;;15.43;100.00
29505;BME280;16452;54.174;12.092;2022-10-31T14:12:53;101996.75;;;15.39;100.00
29505;BME280;16452;54.174;12.092;2022-10-31T14:18:02;101995.22;;;15.52;100.00
29505;BME280;16452;54.174;12.092;2022-10-31T14:28:50;101981.16;;;15.53;100.00
29505;BME280;16452;54.174;12.092;2022-10-31T14:31:44;101973.28;;;15.53;100.00